sensor_id;sensor_type;location;lat;lon;timestamp;temperature;humidity
16263;DHT22;8239;48.594;8.598;2024-02-23T00:00:55;3.50;99.90
16263;DHT22;8239;48.594;8.598;2024-02-23T00:03:22;3.50;99.90
16263;DHT22;8239;48.594;8.598;2024-02-23T00:05:50;3.50;99.90
16263;DHT22;8239;48.594;8.598;2024-02-23T00:08:17;3.50;99.90
16263;DHT22;8239;48.594;8.598;2024-02-23T00:10:44;3.70;99.90
16263;DHT22;8239;48.594;8.598;2024-02-23T00:13:11;3.60;99.90
16263;DHT22;8239;48.594;8.598;2024-02-23T00:15:38;3.60;99.90
16263;DHT22;8239;48.594;8.598;2024-02-23T00:18:05;3.60;99.90
16263;DHT22;8239;48.594;8.598;2024-02-23T00:20:33;3.50;99.90
16263;DHT22;8239;48.594;8.598;2024-02-23T00:23:02;3.50;99.90
16263;DHT22;8239;48.594;8.598;2024-02-23T00:25:29;3.60;99.90
16263;DHT22;8239;48.594;8.598;2024-02-23T00:27:56;3.50;99.90
16263;DHT22;8239;48.594;8.598;2024-02-23T00:30:23;3.50;99.90
16263;DHT22;8239;48.594;8.598;2024-02-23T00:32:50;3.50;99.90
16263;DHT22;8239;48.594;8.598;2024-02-23T00:35:17;3.40;99.90
16263;DHT22;8239;48.594;8.598;2024-02-23T00:37:44;3.50;99.90
16263;DHT22;8239;48.594;8.598;2024-02-23T00:40:13;3.50;99.90
16263;DHT22;8239;48.594;8.598;2024-02-23T00:42:40;3.60;99.90
16263;DHT22;8239;48.594;8.598;2024-02-23T00:45:07;3.50;99.90
16263;DHT22;8239;48.594;8.598;2024-02-23T00:47:35;3.60;99.90
16263;DHT22;8239;48.594;8.598;2024-02-23T00:50:03;3.60;99.90
16263;DHT22;8239;48.594;8.598;2024-02-23T00:52:30;3.60;99.90
16263;DHT22;8239;48.594;8.598;2024-02-23T00:54:57;3.60;99.90
16263;DHT22;8239;48.594;8.598;2024-02-23T00:57:26;3.60;99.90
16263;DHT22;8239;48.594;8.598;2024-02-23T00:59:55;3.60;99.90
16263;DHT22;8239;48.594;8.598;2024-02-23T01:02:22;3.60;99.90
16263;DHT22;8239;48.594;8.598;2024-02-23T01:04:49;3.50;99.90
16263;DHT22;8239;48.594;8.598;2024-02-23T01:07:16;3.50;99.90
16263;DHT22;8239;48.594;8.598;2024-02-23T01:09:42;3.50;99.90
16263;DHT22;8239;48.594;8.598;2024-02-23T01:12:09;3.60;99.90
16263;DHT22;8239;48.594;8.598;2024-02-23T01:14:38;3.60;99.90
16263;DHT22;8239;48.594;8.598;2024-02-23T01:17:05;3.60;99.90
16263;DHT22;8239;48.594;8.598;2024-02-23T01:19:31;3.50;99.90
16263;DHT22;8239;48.594;8.598;2024-02-23T01:21:58;3.60;99.90
16263;DHT22;8239;48.594;8.598;2024-02-23T01:24:26;3.60;99.90
16263;DHT22;8239;48.594;8.598;2024-02-23T01:26:53;3.60;99.90
16263;DHT22;8239;48.594;8.598;2024-02-23T01:29:20;3.60;99.90
16263;DHT22;8239;48.594;8.598;2024-02-23T01:31:49;3.60;99.90
16263;DHT22;8239;48.594;8.598;2024-02-23T01:34:17;3.70;99.90
16263;DHT22;8239;48.594;8.598;2024-02-23T01:36:44;3.70;99.90
16263;DHT22;8239;48.594;8.598;2024-02-23T01:39:11;3.70;99.90
16263;DHT22;8239;48.594;8.598;2024-02-23T01:41:38;3.60;99.90
16263;DHT22;8239;48.594;8.598;2024-02-23T01:44:05;3.60;99.90
16263;DHT22;8239;48.594;8.598;2024-02-23T01:46:32;3.60;99.90
16263;DHT22;8239;48.594;8.598;2024-02-23T01:49:01;3.60;99.90
16263;DHT22;8239;48.594;8.598;2024-02-23T01:51:28;3.70;99.90
16263;DHT22;8239;48.594;8.598;2024-02-23T01:53:55;3.50;99.90
16263;DHT22;8239;48.594;8.598;2024-02-23T01:56:22;3.60;99.90
16263;DHT22;8239;48.594;8.598;2024-02-23T01:58:49;3.50;99.90
16263;DHT22;8239;48.594;8.598;2024-02-23T02:01:16;3.50;99.90
16263;DHT22;8239;48.594;8.598;2024-02-23T02:03:43;3.50;99.90
16263;DHT22;8239;48.594;8.598;2024-02-23T02:06:11;3.50;99.90
16263;DHT22;8239;48.594;8.598;2024-02-23T02:08:38;3.50;99.90
16263;DHT22;8239;48.594;8.598;2024-02-23T02:11:05;3.40;99.90
16263;DHT22;8239;48.594;8.598;2024-02-23T02:13:32;3.40;99.90
16263;DHT22;8239;48.594;8.598;2024-02-23T02:16:00;3.40;99.90
16263;DHT22;8239;48.594;8.598;2024-02-23T02:18:28;3.40;99.90
16263;DHT22;8239;48.594;8.598;2024-02-23T02:20:56;3.40;99.90
16263;DHT22;8239;48.594;8.598;2024-02-23T02:23:25;3.30;99.90
16263;DHT22;8239;48.594;8.598;2024-02-23T02:25:53;3.30;99.90
16263;DHT22;8239;48.594;8.598;2024-02-23T02:28:20;3.20;99.90
16263;DHT22;8239;48.594;8.598;2024-02-23T02:30:48;3.20;99.90
16263;DHT22;8239;48.594;8.598;2024-02-23T02:33:15;3.20;99.90
16263;DHT22;8239;48.594;8.598;2024-02-23T02:35:42;3.20;99.90
16263;DHT22;8239;48.594;8.598;2024-02-23T02:38:10;3.10;99.90
16263;DHT22;8239;48.594;8.598;2024-02-23T02:40:39;3.10;99.90
16263;DHT22;8239;48.594;8.598;2024-02-23T02:43:06;3.00;99.90
16263;DHT22;8239;48.594;8.598;2024-02-23T02:45:33;3.00;99.90
16263;DHT22;8239;48.594;8.598;2024-02-23T02:48:00;2.90;99.90
16263;DHT22;8239;48.594;8.598;2024-02-23T02:50:27;2.90;99.90
16263;DHT22;8239;48.594;8.598;2024-02-23T02:52:54;2.90;99.90
16263;DHT22;8239;48.594;8.598;2024-02-23T02:55:22;2.90;99.90
16263;DHT22;8239;48.594;8.598;2024-02-23T02:57:50;2.80;99.90
16263;DHT22;8239;48.594;8.598;2024-02-23T03:00:17;2.90;99.90
16263;DHT22;8239;48.594;8.598;2024-02-23T03:02:44;2.70;99.90
16263;DHT22;8239;48.594;8.598;2024-02-23T03:05:11;2.70;99.90
16263;DHT22;8239;48.594;8.598;2024-02-23T03:07:37;2.70;99.90
16263;DHT22;8239;48.594;8.598;2024-02-23T03:10:05;2.80;99.90
16263;DHT22;8239;48.594;8.598;2024-02-23T03:12:32;2.70;99.90
16263;DHT22;8239;48.594;8.598;2024-02-23T03:15:01;2.70;99.90
16263;DHT22;8239;48.594;8.598;2024-02-23T03:17:28;2.70;99.90
16263;DHT22;8239;48.594;8.598;2024-02-23T03:19:55;2.70;99.90
16263;DHT22;8239;48.594;8.598;2024-02-23T03:22:23;2.60;99.90
16263;DHT22;8239;48.594;8.598;2024-02-23T03:24:50;2.60;99.90
16263;DHT22;8239;48.594;8.598;2024-02-23T03:27:17;2.70;99.90
16263;DHT22;8239;48.594;8.598;2024-02-23T03:29:44;2.60;99.90
16263;DHT22;8239;48.594;8.598;2024-02-23T03:32:12;2.60;99.90
16263;DHT22;8239;48.594;8.598;2024-02-23T03:34:39;2.60;99.90
16263;DHT22;8239;48.594;8.598;2024-02-23T03:37:06;2.60;99.90
16263;DHT22;8239;48.594;8.598;2024-02-23T03:39:32;2.60;99.90
16263;DHT22;8239;48.594;8.598;2024-02-23T03:41:59;2.60;99.90
16263;DHT22;8239;48.594;8.598;2024-02-23T03:44:26;2.60;99.90
16263;DHT22;8239;48.594;8.598;2024-02-23T03:46:53;2.60;99.90
16263;DHT22;8239;48.594;8.598;2024-02-23T03:49:21;2.60;99.90
16263;DHT22;8239;48.594;8.598;2024-02-23T03:51:48;2.50;99.90
16263;DHT22;8239;48.594;8.598;2024-02-23T03:54:15;2.60;99.90
16263;DHT22;8239;48.594;8.598;2024-02-23T03:56:42;2.40;99.90
16263;DHT22;8239;48.594;8.598;2024-02-23T03:59:09;2.50;99.90
16263;DHT22;8239;48.594;8.598;2024-02-23T04:01:36;2.50;99.90
16263;DHT22;8239;48.594;8.598;2024-02-23T04:04:03;2.50;99.90
16263;DHT22;8239;48.594;8.598;2024-02-23T04:06:33;2.50;99.90
16263;DHT22;8239;48.594;8.598;2024-02-23T04:09:00;2.40;99.90
16263;DHT22;8239;48.594;8.598;2024-02-23T04:11:27;2.40;99.90
16263;DHT22;8239;48.594;8.598;2024-02-23T04:13:54;2.50;99.90
16263;DHT22;8239;48.594;8.598;2024-02-23T04:16:23;2.30;99.90
16263;DHT22;8239;48.594;8.598;2024-02-23T04:18:50;2.30;99.90
16263;DHT22;8239;48.594;8.598;2024-02-23T04:21:17;2.40;99.90
16263;DHT22;8239;48.594;8.598;2024-02-23T04:23:46;2.20;99.90
16263;DHT22;8239;48.594;8.598;2024-02-23T04:26:16;2.20;99.90
16263;DHT22;8239;48.594;8.598;2024-02-23T04:28:43;2.40;99.90
16263;DHT22;8239;48.594;8.598;2024-02-23T04:31:09;2.40;99.90
16263;DHT22;8239;48.594;8.598;2024-02-23T04:33:36;2.30;99.90
16263;DHT22;8239;48.594;8.598;2024-02-23T04:36:04;2.40;99.90
16263;DHT22;8239;48.594;8.598;2024-02-23T04:38:31;2.20;99.90
16263;DHT22;8239;48.594;8.598;2024-02-23T04:41:03;2.10;99.90
16263;DHT22;8239;48.594;8.598;2024-02-23T04:43:31;2.10;99.90
16263;DHT22;8239;48.594;8.598;2024-02-23T04:45:58;2.10;99.90
16263;DHT22;8239;48.594;8.598;2024-02-23T04:48:25;2.20;99.90
16263;DHT22;8239;48.594;8.598;2024-02-23T04:50:52;2.10;99.90
16263;DHT22;8239;48.594;8.598;2024-02-23T04:53:19;2.00;99.90
16263;DHT22;8239;48.594;8.598;2024-02-23T04:55:46;2.00;99.90
16263;DHT22;8239;48.594;8.598;2024-02-23T04:58:14;1.90;99.90
16263;DHT22;8239;48.594;8.598;2024-02-23T05:00:42;2.00;99.90
16263;DHT22;8239;48.594;8.598;2024-02-23T05:03:09;1.90;99.90
16263;DHT22;8239;48.594;8.598;2024-02-23T05:05:36;2.00;99.90
16263;DHT22;8239;48.594;8.598;2024-02-23T05:08:03;1.90;99.90
16263;DHT22;8239;48.594;8.598;2024-02-23T05:10:30;1.90;99.90
16263;DHT22;8239;48.594;8.598;2024-02-23T05:12:57;1.90;99.90
16263;DHT22;8239;48.594;8.598;2024-02-23T05:15:25;1.90;99.90
16263;DHT22;8239;48.594;8.598;2024-02-23T05:17:52;1.80;99.90
16263;DHT22;8239;48.594;8.598;2024-02-23T05:20:19;1.90;99.90
16263;DHT22;8239;48.594;8.598;2024-02-23T05:22:47;1.90;99.90
16263;DHT22;8239;48.594;8.598;2024-02-23T05:25:14;1.80;99.90
16263;DHT22;8239;48.594;8.598;2024-02-23T05:27:41;1.80;99.90
16263;DHT22;8239;48.594;8.598;2024-02-23T05:30:09;1.90;99.90
16263;DHT22;8239;48.594;8.598;2024-02-23T05:32:38;1.90;99.90
16263;DHT22;8239;48.594;8.598;2024-02-23T05:35:05;2.00;99.90
16263;DHT22;8239;48.594;8.598;2024-02-23T05:37:32;2.20;99.90
16263;DHT22;8239;48.594;8.598;2024-02-23T05:39:59;2.30;99.90
16263;DHT22;8239;48.594;8.598;2024-02-23T05:42:29;2.10;99.90
16263;DHT22;8239;48.594;8.598;2024-02-23T05:44:56;2.10;99.90
16263;DHT22;8239;48.594;8.598;2024-02-23T05:47:24;2.10;99.90
16263;DHT22;8239;48.594;8.598;2024-02-23T05:49:52;2.00;99.90
16263;DHT22;8239;48.594;8.598;2024-02-23T05:52:20;1.90;99.90
16263;DHT22;8239;48.594;8.598;2024-02-23T05:54:47;1.90;99.90
16263;DHT22;8239;48.594;8.598;2024-02-23T05:57:14;1.80;99.90
16263;DHT22;8239;48.594;8.598;2024-02-23T05:59:41;1.80;99.90
16263;DHT22;8239;48.594;8.598;2024-02-23T06:02:08;1.70;99.90
16263;DHT22;8239;48.594;8.598;2024-02-23T06:04:35;1.70;99.90
16263;DHT22;8239;48.594;8.598;2024-02-23T06:07:03;1.60;99.90
16263;DHT22;8239;48.594;8.598;2024-02-23T06:09:30;1.60;99.90
16263;DHT22;8239;48.594;8.598;2024-02-23T06:11:57;1.60;99.90
16263;DHT22;8239;48.594;8.598;2024-02-23T06:14:24;1.60;99.90
16263;DHT22;8239;48.594;8.598;2024-02-23T06:16:51;1.60;99.90
16263;DHT22;8239;48.594;8.598;2024-02-23T06:19:18;1.50;99.90
16263;DHT22;8239;48.594;8.598;2024-02-23T06:21:47;1.60;99.90
16263;DHT22;8239;48.594;8.598;2024-02-23T06:24:16;1.60;99.90
16263;DHT22;8239;48.594;8.598;2024-02-23T06:26:43;1.50;99.90
16263;DHT22;8239;48.594;8.598;2024-02-23T06:29:14;1.50;99.90
16263;DHT22;8239;48.594;8.598;2024-02-23T06:31:41;1.50;99.90
16263;DHT22;8239;48.594;8.598;2024-02-23T06:34:08;1.50;99.90
16263;DHT22;8239;48.594;8.598;2024-02-23T06:36:35;1.50;99.90
16263;DHT22;8239;48.594;8.598;2024-02-23T06:39:03;1.50;99.90
16263;DHT22;8239;48.594;8.598;2024-02-23T06:41:31;1.50;99.90
16263;DHT22;8239;48.594;8.598;2024-02-23T06:43:59;1.50;99.90
16263;DHT22;8239;48.594;8.598;2024-02-23T06:46:26;1.50;99.90
16263;DHT22;8239;48.594;8.598;2024-02-23T06:48:53;1.40;99.90
16263;DHT22;8239;48.594;8.598;2024-02-23T06:51:20;1.40;99.90
16263;DHT22;8239;48.594;8.598;2024-02-23T06:53:47;1.50;99.90
16263;DHT22;8239;48.594;8.598;2024-02-23T06:56:14;1.50;99.90
16263;DHT22;8239;48.594;8.598;2024-02-23T06:58:45;1.50;99.90
16263;DHT22;8239;48.594;8.598;2024-02-23T07:01:12;1.50;99.90
16263;DHT22;8239;48.594;8.598;2024-02-23T07:03:39;1.50;99.90
16263;DHT22;8239;48.594;8.598;2024-02-23T07:06:09;1.80;99.90
16263;DHT22;8239;48.594;8.598;2024-02-23T07:08:36;1.80;99.90
16263;DHT22;8239;48.594;8.598;2024-02-23T07:11:03;1.80;99.90
16263;DHT22;8239;48.594;8.598;2024-02-23T07:13:30;1.80;99.90
16263;DHT22;8239;48.594;8.598;2024-02-23T07:16:00;1.90;99.90
16263;DHT22;8239;48.594;8.598;2024-02-23T07:18:27;2.10;99.90
16263;DHT22;8239;48.594;8.598;2024-02-23T07:20:54;2.10;99.90
16263;DHT22;8239;48.594;8.598;2024-02-23T07:23:21;2.20;99.90
16263;DHT22;8239;48.594;8.598;2024-02-23T07:25:48;2.30;99.90
16263;DHT22;8239;48.594;8.598;2024-02-23T07:28:16;2.40;99.90
16263;DHT22;8239;48.594;8.598;2024-02-23T07:30:45;2.50;99.90
16263;DHT22;8239;48.594;8.598;2024-02-23T07:33:14;2.50;99.90
16263;DHT22;8239;48.594;8.598;2024-02-23T07:35:40;2.50;99.90
16263;DHT22;8239;48.594;8.598;2024-02-23T07:38:08;2.70;99.90
16263;DHT22;8239;48.594;8.598;2024-02-23T07:40:35;2.80;99.90
16263;DHT22;8239;48.594;8.598;2024-02-23T07:43:03;3.10;99.90
16263;DHT22;8239;48.594;8.598;2024-02-23T07:45:30;3.30;99.90
16263;DHT22;8239;48.594;8.598;2024-02-23T07:47:59;3.50;99.90
16263;DHT22;8239;48.594;8.598;2024-02-23T07:50:27;3.60;99.90
16263;DHT22;8239;48.594;8.598;2024-02-23T07:52:54;3.60;99.90
16263;DHT22;8239;48.594;8.598;2024-02-23T07:55:21;3.60;99.90
16263;DHT22;8239;48.594;8.598;2024-02-23T07:57:48;3.50;99.90
16263;DHT22;8239;48.594;8.598;2024-02-23T08:00:15;3.60;99.90
16263;DHT22;8239;48.594;8.598;2024-02-23T08:02:42;3.80;99.90
16263;DHT22;8239;48.594;8.598;2024-02-23T08:05:09;4.20;99.90
16263;DHT22;8239;48.594;8.598;2024-02-23T08:07:38;4.60;99.90
16263;DHT22;8239;48.594;8.598;2024-02-23T08:10:05;5.50;99.90
16263;DHT22;8239;48.594;8.598;2024-02-23T08:12:32;6.50;99.90
16263;DHT22;8239;48.594;8.598;2024-02-23T08:14:59;7.50;99.90
16263;DHT22;8239;48.594;8.598;2024-02-23T08:17:26;8.00;99.40
16263;DHT22;8239;48.594;8.598;2024-02-23T08:19:53;9.10;99.70
16263;DHT22;8239;48.594;8.598;2024-02-23T08:22:20;10.70;90.30
16263;DHT22;8239;48.594;8.598;2024-02-23T08:24:50;11.10;89.80
16263;DHT22;8239;48.594;8.598;2024-02-23T08:27:17;11.60;92.60
16263;DHT22;8239;48.594;8.598;2024-02-23T08:29:44;12.60;83.40
16263;DHT22;8239;48.594;8.598;2024-02-23T08:32:11;13.20;79.70
16263;DHT22;8239;48.594;8.598;2024-02-23T08:34:38;14.20;70.80
16263;DHT22;8239;48.594;8.598;2024-02-23T08:37:05;14.90;73.60
16263;DHT22;8239;48.594;8.598;2024-02-23T08:39:32;14.70;63.40
16263;DHT22;8239;48.594;8.598;2024-02-23T08:42:03;14.20;75.70
16263;DHT22;8239;48.594;8.598;2024-02-23T08:44:30;14.20;66.70
16263;DHT22;8239;48.594;8.598;2024-02-23T08:46:56;14.00;64.00
16263;DHT22;8239;48.594;8.598;2024-02-23T08:49:23;13.70;68.40
16263;DHT22;8239;48.594;8.598;2024-02-23T08:51:50;13.40;67.60
16263;DHT22;8239;48.594;8.598;2024-02-23T08:54:17;13.40;74.20
16263;DHT22;8239;48.594;8.598;2024-02-23T08:56:44;14.50;67.60
16263;DHT22;8239;48.594;8.598;2024-02-23T08:59:12;14.90;66.20
16263;DHT22;8239;48.594;8.598;2024-02-23T09:01:39;15.90;61.30
16263;DHT22;8239;48.594;8.598;2024-02-23T09:04:06;16.10;66.50
16263;DHT22;8239;48.594;8.598;2024-02-23T09:06:33;16.90;57.80
16263;DHT22;8239;48.594;8.598;2024-02-23T09:09:00;17.90;53.00
16263;DHT22;8239;48.594;8.598;2024-02-23T09:11:27;18.90;51.60
16263;DHT22;8239;48.594;8.598;2024-02-23T09:13:54;19.30;48.10
16263;DHT22;8239;48.594;8.598;2024-02-23T09:16:23;20.00;47.60
16263;DHT22;8239;48.594;8.598;2024-02-23T09:18:50;21.10;46.10
16263;DHT22;8239;48.594;8.598;2024-02-23T09:21:17;21.50;45.90
16263;DHT22;8239;48.594;8.598;2024-02-23T09:23:44;21.60;41.70
16263;DHT22;8239;48.594;8.598;2024-02-23T09:26:11;21.60;42.80
16263;DHT22;8239;48.594;8.598;2024-02-23T09:28:38;22.40;43.60
16263;DHT22;8239;48.594;8.598;2024-02-23T09:31:06;23.10;40.80
16263;DHT22;8239;48.594;8.598;2024-02-23T09:33:35;23.10;39.10
16263;DHT22;8239;48.594;8.598;2024-02-23T09:36:02;23.10;39.40
16263;DHT22;8239;48.594;8.598;2024-02-23T09:38:29;23.20;37.70
16263;DHT22;8239;48.594;8.598;2024-02-23T09:40:58;23.50;37.50
16263;DHT22;8239;48.594;8.598;2024-02-23T09:43:29;22.70;36.00
16263;DHT22;8239;48.594;8.598;2024-02-23T09:45:57;21.40;35.80
16263;DHT22;8239;48.594;8.598;2024-02-23T09:48:25;20.50;38.40
16263;DHT22;8239;48.594;8.598;2024-02-23T09:50:54;20.20;39.30
16263;DHT22;8239;48.594;8.598;2024-02-23T09:53:23;20.00;39.70
16263;DHT22;8239;48.594;8.598;2024-02-23T09:55:50;19.90;39.60
16263;DHT22;8239;48.594;8.598;2024-02-23T09:58:19;19.60;40.50
16263;DHT22;8239;48.594;8.598;2024-02-23T10:00:47;19.70;39.70
16263;DHT22;8239;48.594;8.598;2024-02-23T10:03:14;19.60;38.20
16263;DHT22;8239;48.594;8.598;2024-02-23T10:05:41;18.20;40.50
16263;DHT22;8239;48.594;8.598;2024-02-23T10:08:11;17.80;42.50
16263;DHT22;8239;48.594;8.598;2024-02-23T10:10:38;18.40;41.90
16263;DHT22;8239;48.594;8.598;2024-02-23T10:13:07;18.60;40.20
16263;DHT22;8239;48.594;8.598;2024-02-23T10:15:34;19.40;39.10
16263;DHT22;8239;48.594;8.598;2024-02-23T10:18:01;19.90;38.00
16263;DHT22;8239;48.594;8.598;2024-02-23T10:20:28;20.10;36.80
16263;DHT22;8239;48.594;8.598;2024-02-23T10:22:55;19.60;37.00
16263;DHT22;8239;48.594;8.598;2024-02-23T10:25:24;19.10;37.60
16263;DHT22;8239;48.594;8.598;2024-02-23T10:27:51;17.80;38.80
16263;DHT22;8239;48.594;8.598;2024-02-23T10:30:18;16.70;40.10
16263;DHT22;8239;48.594;8.598;2024-02-23T10:32:46;15.40;41.30
16263;DHT22;8239;48.594;8.598;2024-02-23T10:35:14;13.70;44.00
16263;DHT22;8239;48.594;8.598;2024-02-23T10:37:42;12.10;46.50
16263;DHT22;8239;48.594;8.598;2024-02-23T10:40:12;11.00;49.30
16263;DHT22;8239;48.594;8.598;2024-02-23T10:42:44;10.00;51.40
16263;DHT22;8239;48.594;8.598;2024-02-23T10:45:14;9.20;54.70
16263;DHT22;8239;48.594;8.598;2024-02-23T10:47:41;8.50;57.80
16263;DHT22;8239;48.594;8.598;2024-02-23T10:50:09;8.20;58.80
16263;DHT22;8239;48.594;8.598;2024-02-23T10:52:40;7.80;60.30
16263;DHT22;8239;48.594;8.598;2024-02-23T10:55:08;7.60;61.00
16263;DHT22;8239;48.594;8.598;2024-02-23T10:57:36;7.50;62.00
16263;DHT22;8239;48.594;8.598;2024-02-23T11:00:06;7.30;62.50
16263;DHT22;8239;48.594;8.598;2024-02-23T11:02:38;7.40;61.40
16263;DHT22;8239;48.594;8.598;2024-02-23T11:05:07;7.40;61.50
16263;DHT22;8239;48.594;8.598;2024-02-23T11:07:38;7.60;62.50
16263;DHT22;8239;48.594;8.598;2024-02-23T11:10:06;7.90;63.70
16263;DHT22;8239;48.594;8.598;2024-02-23T11:12:35;8.10;63.60
16263;DHT22;8239;48.594;8.598;2024-02-23T11:15:02;8.30;61.40
16263;DHT22;8239;48.594;8.598;2024-02-23T11:17:32;8.50;61.30
16263;DHT22;8239;48.594;8.598;2024-02-23T11:20:02;8.70;61.60
16263;DHT22;8239;48.594;8.598;2024-02-23T11:22:31;8.80;61.70
16263;DHT22;8239;48.594;8.598;2024-02-23T11:25:00;8.30;59.80
16263;DHT22;8239;48.594;8.598;2024-02-23T11:27:31;8.00;61.20
16263;DHT22;8239;48.594;8.598;2024-02-23T11:30:03;7.40;61.10
16263;DHT22;8239;48.594;8.598;2024-02-23T11:32:39;7.30;62.60
16263;DHT22;8239;48.594;8.598;2024-02-23T11:35:07;7.10;63.20
16263;DHT22;8239;48.594;8.598;2024-02-23T11:37:47;7.00;63.70
16263;DHT22;8239;48.594;8.598;2024-02-23T11:40:15;7.00;64.20
16263;DHT22;8239;48.594;8.598;2024-02-23T11:42:42;7.10;64.60
16263;DHT22;8239;48.594;8.598;2024-02-23T11:45:09;7.10;65.10
16263;DHT22;8239;48.594;8.598;2024-02-23T11:47:38;7.20;65.90
16263;DHT22;8239;48.594;8.598;2024-02-23T11:50:08;7.40;66.20
16263;DHT22;8239;48.594;8.598;2024-02-23T11:52:36;7.50;65.30
16263;DHT22;8239;48.594;8.598;2024-02-23T11:55:04;7.80;65.50
16263;DHT22;8239;48.594;8.598;2024-02-23T11:57:31;7.80;63.00
16263;DHT22;8239;48.594;8.598;2024-02-23T12:00:00;7.80;63.70
16263;DHT22;8239;48.594;8.598;2024-02-23T12:02:27;7.60;62.50
16263;DHT22;8239;48.594;8.598;2024-02-23T12:04:56;7.50;62.30
16263;DHT22;8239;48.594;8.598;2024-02-23T12:07:23;7.50;63.10
16263;DHT22;8239;48.594;8.598;2024-02-23T12:09:51;7.70;63.90
16263;DHT22;8239;48.594;8.598;2024-02-23T12:12:18;8.00;63.50
16263;DHT22;8239;48.594;8.598;2024-02-23T12:14:45;8.30;62.40
16263;DHT22;8239;48.594;8.598;2024-02-23T12:17:13;8.40;65.90
16263;DHT22;8239;48.594;8.598;2024-02-23T12:19:40;8.00;67.30
16263;DHT22;8239;48.594;8.598;2024-02-23T12:22:10;7.60;69.10
16263;DHT22;8239;48.594;8.598;2024-02-23T12:24:37;7.30;70.90
16263;DHT22;8239;48.594;8.598;2024-02-23T12:27:05;7.10;71.70
16263;DHT22;8239;48.594;8.598;2024-02-23T12:29:31;7.00;72.80
16263;DHT22;8239;48.594;8.598;2024-02-23T12:32:05;7.00;73.30
16263;DHT22;8239;48.594;8.598;2024-02-23T12:34:32;7.00;73.90
16263;DHT22;8239;48.594;8.598;2024-02-23T12:36:59;6.90;73.90
16263;DHT22;8239;48.594;8.598;2024-02-23T12:39:29;6.90;74.20
16263;DHT22;8239;48.594;8.598;2024-02-23T12:41:57;6.90;75.10
16263;DHT22;8239;48.594;8.598;2024-02-23T12:44:24;6.90;74.30
16263;DHT22;8239;48.594;8.598;2024-02-23T12:46:51;6.90;75.20
16263;DHT22;8239;48.594;8.598;2024-02-23T12:49:18;6.90;76.10
16263;DHT22;8239;48.594;8.598;2024-02-23T12:51:45;7.00;75.30
16263;DHT22;8239;48.594;8.598;2024-02-23T12:54:12;7.20;76.20
16263;DHT22;8239;48.594;8.598;2024-02-23T12:56:40;7.40;75.30
16263;DHT22;8239;48.594;8.598;2024-02-23T12:59:08;7.60;75.30
16263;DHT22;8239;48.594;8.598;2024-02-23T13:01:36;7.70;75.70
16263;DHT22;8239;48.594;8.598;2024-02-23T13:04:04;7.70;74.90
16263;DHT22;8239;48.594;8.598;2024-02-23T13:06:35;7.80;75.10
16263;DHT22;8239;48.594;8.598;2024-02-23T13:09:02;8.10;75.80
16263;DHT22;8239;48.594;8.598;2024-02-23T13:11:29;8.50;73.20
16263;DHT22;8239;48.594;8.598;2024-02-23T13:13:58;8.50;72.80
16263;DHT22;8239;48.594;8.598;2024-02-23T13:16:25;8.60;70.90
16263;DHT22;8239;48.594;8.598;2024-02-23T13:18:52;8.30;72.30
16263;DHT22;8239;48.594;8.598;2024-02-23T13:21:19;8.40;72.10
16263;DHT22;8239;48.594;8.598;2024-02-23T13:23:46;8.20;73.30
16263;DHT22;8239;48.594;8.598;2024-02-23T13:26:13;8.10;73.80
16263;DHT22;8239;48.594;8.598;2024-02-23T13:28:41;8.10;73.30
16263;DHT22;8239;48.594;8.598;2024-02-23T13:31:10;8.20;69.40
16263;DHT22;8239;48.594;8.598;2024-02-23T13:33:37;8.40;66.90
16263;DHT22;8239;48.594;8.598;2024-02-23T13:36:04;8.70;66.20
16263;DHT22;8239;48.594;8.598;2024-02-23T13:38:32;9.80;65.90
16263;DHT22;8239;48.594;8.598;2024-02-23T13:41:04;10.90;60.70
16263;DHT22;8239;48.594;8.598;2024-02-23T13:43:31;11.20;57.40
16263;DHT22;8239;48.594;8.598;2024-02-23T13:46:00;10.70;57.60
16263;DHT22;8239;48.594;8.598;2024-02-23T13:48:30;10.10;58.40
16263;DHT22;8239;48.594;8.598;2024-02-23T13:50:57;9.60;61.40
16263;DHT22;8239;48.594;8.598;2024-02-23T13:53:29;9.00;61.30
16263;DHT22;8239;48.594;8.598;2024-02-23T13:55:56;8.40;62.80
16263;DHT22;8239;48.594;8.598;2024-02-23T13:58:23;8.00;63.90
16263;DHT22;8239;48.594;8.598;2024-02-23T14:00:50;7.70;64.20
16263;DHT22;8239;48.594;8.598;2024-02-23T14:03:17;7.50;65.50
16263;DHT22;8239;48.594;8.598;2024-02-23T14:05:46;7.30;66.90
16263;DHT22;8239;48.594;8.598;2024-02-23T14:08:13;7.20;67.60
16263;DHT22;8239;48.594;8.598;2024-02-23T14:10:40;7.10;68.70
16263;DHT22;8239;48.594;8.598;2024-02-23T14:13:08;7.00;70.70
16263;DHT22;8239;48.594;8.598;2024-02-23T14:15:38;7.00;73.10
16263;DHT22;8239;48.594;8.598;2024-02-23T14:18:05;6.90;73.10
16263;DHT22;8239;48.594;8.598;2024-02-23T14:20:32;6.80;75.40
16263;DHT22;8239;48.594;8.598;2024-02-23T14:23:00;6.60;79.00
16263;DHT22;8239;48.594;8.598;2024-02-23T14:25:27;6.40;82.70
16263;DHT22;8239;48.594;8.598;2024-02-23T14:27:54;6.20;86.20
16263;DHT22;8239;48.594;8.598;2024-02-23T14:30:22;6.10;89.40
16263;DHT22;8239;48.594;8.598;2024-02-23T14:32:49;6.20;89.10
16263;DHT22;8239;48.594;8.598;2024-02-23T14:35:16;6.10;89.20
16263;DHT22;8239;48.594;8.598;2024-02-23T14:37:43;6.50;91.30
16263;DHT22;8239;48.594;8.598;2024-02-23T14:40:11;7.70;90.60
16263;DHT22;8239;48.594;8.598;2024-02-23T14:42:40;10.30;80.80
16263;DHT22;8239;48.594;8.598;2024-02-23T14:45:07;13.20;70.50
16263;DHT22;8239;48.594;8.598;2024-02-23T14:47:35;16.10;58.40
16263;DHT22;8239;48.594;8.598;2024-02-23T14:50:02;17.40;53.60
16263;DHT22;8239;48.594;8.598;2024-02-23T14:52:29;17.80;50.90
16263;DHT22;8239;48.594;8.598;2024-02-23T14:54:56;17.90;50.90
16263;DHT22;8239;48.594;8.598;2024-02-23T14:57:24;17.90;51.10
16263;DHT22;8239;48.594;8.598;2024-02-23T14:59:51;16.70;50.10
16263;DHT22;8239;48.594;8.598;2024-02-23T15:02:20;15.40;52.70
16263;DHT22;8239;48.594;8.598;2024-02-23T15:04:47;13.40;54.70
16263;DHT22;8239;48.594;8.598;2024-02-23T15:07:14;12.00;57.50
16263;DHT22;8239;48.594;8.598;2024-02-23T15:09:41;11.00;59.50
16263;DHT22;8239;48.594;8.598;2024-02-23T15:12:09;9.90;65.00
16263;DHT22;8239;48.594;8.598;2024-02-23T15:14:37;9.20;67.90
16263;DHT22;8239;48.594;8.598;2024-02-23T15:17:04;8.70;70.70
16263;DHT22;8239;48.594;8.598;2024-02-23T15:19:32;8.50;71.30
16263;DHT22;8239;48.594;8.598;2024-02-23T15:21:59;8.70;72.20
16263;DHT22;8239;48.594;8.598;2024-02-23T15:24:26;8.80;72.40
16263;DHT22;8239;48.594;8.598;2024-02-23T15:26:53;9.60;72.60
16263;DHT22;8239;48.594;8.598;2024-02-23T15:29:20;11.50;67.00
16263;DHT22;8239;48.594;8.598;2024-02-23T15:31:48;13.70;60.10
16263;DHT22;8239;48.594;8.598;2024-02-23T15:34:17;15.50;54.30
16263;DHT22;8239;48.594;8.598;2024-02-23T15:36:44;15.70;51.60
16263;DHT22;8239;48.594;8.598;2024-02-23T15:39:12;14.80;52.50
16263;DHT22;8239;48.594;8.598;2024-02-23T15:41:39;14.10;53.20
16263;DHT22;8239;48.594;8.598;2024-02-23T15:44:06;13.30;53.80
16263;DHT22;8239;48.594;8.598;2024-02-23T15:46:33;13.40;55.90
16263;DHT22;8239;48.594;8.598;2024-02-23T15:49:02;13.90;53.80
16263;DHT22;8239;48.594;8.598;2024-02-23T15:51:30;13.50;52.70
16263;DHT22;8239;48.594;8.598;2024-02-23T15:53:59;13.00;54.70
16263;DHT22;8239;48.594;8.598;2024-02-23T15:56:27;13.00;56.40
16263;DHT22;8239;48.594;8.598;2024-02-23T15:58:54;13.50;55.10